createdAt,value
2018-10-16T00:02:15.693Z,16.93
2018-10-16T00:04:44.255Z,21.57
2018-10-16T00:07:12.866Z,18.07
2018-10-16T00:09:41.375Z,17.30
2018-10-16T00:12:10.419Z,21.20
2018-10-16T00:14:38.977Z,20.77
2018-10-16T00:17:07.504Z,16.50
2018-10-16T00:19:36.063Z,16.23
2018-10-16T00:22:04.657Z,19.03
2018-10-16T00:24:33.291Z,20.50
2018-10-16T00:27:01.897Z,16.93
2018-10-16T00:29:30.480Z,16.47
2018-10-16T00:31:59.040Z,18.10
2018-10-16T00:34:27.576Z,19.73
2018-10-16T00:36:56.124Z,13.07
2018-10-16T00:39:24.739Z,17.67
2018-10-16T00:41:53.488Z,21.33
2018-10-16T00:44:22.257Z,15.03
2018-10-16T00:46:50.892Z,14.90
2018-10-16T00:49:19.543Z,16.20
2018-10-16T00:51:48.124Z,17.50
2018-10-16T00:54:16.718Z,15.77
2018-10-16T00:56:45.203Z,14.60
2018-10-16T00:59:13.735Z,15.90
2018-10-16T01:01:42.215Z,14.60
2018-10-16T01:04:10.793Z,15.97
2018-10-16T01:06:39.316Z,20.30
2018-10-16T01:09:11.745Z,19.27
2018-10-16T01:11:40.706Z,19.10
2018-10-16T01:14:09.401Z,17.67
2018-10-16T01:16:37.925Z,16.93
2018-10-16T01:19:06.762Z,19.20
2018-10-16T01:21:35.265Z,18.90
2018-10-16T01:24:03.806Z,19.80
2018-10-16T01:26:32.278Z,21.27
2018-10-16T01:29:00.814Z,21.30
2018-10-16T01:31:29.329Z,17.53
2018-10-16T01:33:57.834Z,20.60
2018-10-16T01:36:26.449Z,20.40
2018-10-16T01:38:54.985Z,19.60
2018-10-16T01:41:23.514Z,21.13
2018-10-16T01:43:51.986Z,21.13
2018-10-16T01:46:20.493Z,20.30
2018-10-16T01:48:49.028Z,20.20
2018-10-16T01:51:17.552Z,17.37
2018-10-16T01:53:46.076Z,22.70
2018-10-16T01:56:14.620Z,20.27
2018-10-16T01:58:43.129Z,22.13
2018-10-16T02:01:11.653Z,22.40
2018-10-16T02:03:40.230Z,19.40
2018-10-16T02:06:08.766Z,22.13
2018-10-16T02:08:37.288Z,22.43
2018-10-16T02:11:06.003Z,22.30
2018-10-16T02:13:34.532Z,18.03
2018-10-16T02:16:03.061Z,18.93
2018-10-16T02:18:31.563Z,18.37
2018-10-16T02:21:00.061Z,22.67
2018-10-16T02:23:28.543Z,17.67
2018-10-16T02:25:57.069Z,21.97
2018-10-16T02:28:25.762Z,18.77
2018-10-16T02:30:54.256Z,22.13
2018-10-16T02:33:22.749Z,29.23
2018-10-16T02:35:51.229Z,28.37
2018-10-16T02:38:19.747Z,34.20
2018-10-16T02:40:48.277Z,18.80
2018-10-16T02:43:16.735Z,19.07
2018-10-16T02:45:45.288Z,24.43
2018-10-16T02:48:13.738Z,21.27
2018-10-16T02:50:42.246Z,17.97
2018-10-16T02:53:10.798Z,23.57
2018-10-16T02:55:39.284Z,21.63
2018-10-16T02:58:08.635Z,18.20
2018-10-16T03:00:37.141Z,20.87
2018-10-16T03:03:05.888Z,18.27
2018-10-16T03:05:34.405Z,21.57
2018-10-16T03:08:02.872Z,20.27
2018-10-16T03:10:31.427Z,17.77
2018-10-16T03:12:59.887Z,19.90
2018-10-16T03:15:28.377Z,18.97
2018-10-16T03:17:56.833Z,18.77
2018-10-16T03:20:25.371Z,24.67
2018-10-16T03:22:53.911Z,22.73
2018-10-16T03:25:22.420Z,20.90
2018-10-16T03:27:51.440Z,22.87
2018-10-16T03:30:19.951Z,19.63
2018-10-16T03:32:48.894Z,21.40
2018-10-16T03:35:17.421Z,19.63
2018-10-16T03:37:45.956Z,17.03
2018-10-16T03:40:14.491Z,19.57
2018-10-16T03:42:43.313Z,20.73
2018-10-16T03:45:12.870Z,20.80
2018-10-16T03:47:41.482Z,20.00
2018-10-16T03:50:10.556Z,20.90
2018-10-16T03:52:39.114Z,20.03
2018-10-16T03:55:07.952Z,20.33
2018-10-16T03:57:36.545Z,18.97
2018-10-16T04:00:05.634Z,18.53
2018-10-16T04:02:34.290Z,19.70
2018-10-16T04:05:02.822Z,23.57
2018-10-16T04:07:31.360Z,20.73
2018-10-16T04:09:59.935Z,23.30
2018-10-16T04:12:28.458Z,21.80
2018-10-16T04:14:57.016Z,23.93
2018-10-16T04:17:25.561Z,19.40
2018-10-16T04:19:54.108Z,17.97
2018-10-16T04:22:22.688Z,19.00
2018-10-16T04:24:51.212Z,22.27
2018-10-16T04:27:19.784Z,24.23
2018-10-16T04:29:48.319Z,28.87
2018-10-16T04:32:16.890Z,25.23
2018-10-16T04:34:45.424Z,20.50
2018-10-16T04:37:14.136Z,20.00
2018-10-16T04:39:42.740Z,25.83
2018-10-16T04:42:11.387Z,20.07
2018-10-16T04:44:39.891Z,21.47
2018-10-16T04:47:08.407Z,22.70
2018-10-16T04:49:36.942Z,21.30
2018-10-16T04:52:05.517Z,19.20
2018-10-16T04:54:33.972Z,20.30
2018-10-16T04:57:02.433Z,22.73
2018-10-16T04:59:30.855Z,24.03
2018-10-16T05:01:59.347Z,19.77
2018-10-16T05:04:27.754Z,21.83
2018-10-16T05:06:56.259Z,21.40
2018-10-16T05:09:24.705Z,20.13
2018-10-16T05:11:54.581Z,24.30
2018-10-16T05:14:23.144Z,20.23
2018-10-16T05:16:51.777Z,21.20
2018-10-16T05:19:20.186Z,22.50
2018-10-16T05:21:48.649Z,22.80
2018-10-16T05:24:17.129Z,22.40
2018-10-16T05:26:45.641Z,27.33
2018-10-16T05:29:14.099Z,23.90
2018-10-16T05:31:42.583Z,22.33
2018-10-16T05:34:10.996Z,23.43
2018-10-16T05:36:39.522Z,20.73
2018-10-16T05:39:10.755Z,25.33
2018-10-16T05:41:40.045Z,22.23
2018-10-16T05:44:09.060Z,23.53
2018-10-16T05:46:37.656Z,19.80
2018-10-16T05:49:06.236Z,22.57
2018-10-16T05:51:34.652Z,26.00
2018-10-16T05:54:03.121Z,19.93
2018-10-16T05:56:31.627Z,23.63
2018-10-16T05:59:00.090Z,21.83
2018-10-16T06:01:28.566Z,26.10
2018-10-16T06:03:57.020Z,20.73
2018-10-16T06:06:25.457Z,21.13
2018-10-16T06:08:53.886Z,25.33
2018-10-16T06:11:22.514Z,23.40
2018-10-16T06:13:50.972Z,21.27
2018-10-16T06:16:19.618Z,20.20
2018-10-16T06:18:48.138Z,22.10
2018-10-16T06:21:16.697Z,23.13
2018-10-16T06:23:45.371Z,27.73
2018-10-16T06:26:13.995Z,20.23
2018-10-16T06:28:42.454Z,26.17
2018-10-16T06:31:10.912Z,22.93
2018-10-16T06:33:39.399Z,25.80
2018-10-16T06:36:07.916Z,23.80
2018-10-16T06:38:36.350Z,20.07
2018-10-16T06:41:05.453Z,19.70
2018-10-16T06:43:33.728Z,22.13
2018-10-16T06:46:02.266Z,27.17
2018-10-16T06:48:30.989Z,20.47
2018-10-16T06:50:59.326Z,26.20
2018-10-16T06:53:27.817Z,20.47
2018-10-16T06:55:56.716Z,22.00
2018-10-16T06:58:25.240Z,17.77
2018-10-16T07:00:53.733Z,24.90
2018-10-16T07:03:22.330Z,22.47
2018-10-16T07:05:50.885Z,22.70
2018-10-16T07:08:19.539Z,17.33
2018-10-16T07:10:48.059Z,28.00
2018-10-16T07:13:16.469Z,31.40
2018-10-16T07:15:44.986Z,18.40
2018-10-16T07:18:13.472Z,22.93
2018-10-16T07:20:41.932Z,19.97
2018-10-16T07:23:10.359Z,22.67
2018-10-16T07:25:38.836Z,22.37
2018-10-16T07:28:07.462Z,23.40
2018-10-16T07:30:36.132Z,16.53
2018-10-16T07:33:04.649Z,18.47
2018-10-16T07:35:33.137Z,17.40
2018-10-16T07:38:01.679Z,14.50
2018-10-16T07:40:30.193Z,14.40
2018-10-16T07:42:58.564Z,19.70
2018-10-16T07:45:27.082Z,14.10
2018-10-16T07:47:55.530Z,13.77
2018-10-16T07:50:24.049Z,15.50
2018-10-16T07:52:52.596Z,12.23
2018-10-16T07:55:27.997Z,11.50
2018-10-16T07:57:56.376Z,16.70
2018-10-16T08:00:24.859Z,12.63
2018-10-16T08:02:53.404Z,13.23
2018-10-16T08:05:21.956Z,11.10
2018-10-16T08:07:50.556Z,11.30
2018-10-16T08:10:19.187Z,11.37
2018-10-16T08:12:47.661Z,10.77
2018-10-16T08:15:16.237Z,13.77
2018-10-16T08:17:44.872Z,10.10
2018-10-16T08:20:13.381Z,11.07
2018-10-16T08:22:41.942Z,9.47
2018-10-16T08:25:10.388Z,10.27
2018-10-16T08:27:38.918Z,9.27
2018-10-16T08:30:08.914Z,10.33
2018-10-16T08:32:37.482Z,11.13
2018-10-16T08:35:06.032Z,12.57
2018-10-16T08:39:52.292Z,11.87
2018-10-16T08:43:32.760Z,9.47
2018-10-16T08:46:12.903Z,9.80
2018-10-16T08:48:52.593Z,9.30
2018-10-16T08:51:33.417Z,8.33
2018-10-16T08:54:02.154Z,9.10
2018-10-16T08:56:30.963Z,8.83
2018-10-16T08:58:59.675Z,8.80
2018-10-16T09:01:30.092Z,8.60
2018-10-16T09:03:59.085Z,9.33
2018-10-16T09:06:27.633Z,9.37
2018-10-16T09:08:56.173Z,14.37
2018-10-16T09:11:24.660Z,8.53
2018-10-16T09:13:53.335Z,8.50
2018-10-16T09:16:22.402Z,8.07
2018-10-16T09:18:50.987Z,7.80
2018-10-16T09:21:19.575Z,10.87
2018-10-16T09:23:48.148Z,9.83
2018-10-16T09:26:16.731Z,7.40
2018-10-16T09:28:45.460Z,11.27
2018-10-16T09:31:14.094Z,14.03
2018-10-16T09:33:42.672Z,14.10
2018-10-16T09:36:11.231Z,11.40
2018-10-16T09:38:39.933Z,12.00
2018-10-16T09:41:08.705Z,15.53
2018-10-16T09:43:37.222Z,13.43
2018-10-16T09:46:05.799Z,15.60
2018-10-16T09:48:37.197Z,11.50
2018-10-16T09:51:05.872Z,10.70
2018-10-16T09:53:34.437Z,14.33
2018-10-16T09:56:03.164Z,14.00
2018-10-16T09:58:31.816Z,10.60
2018-10-16T10:01:06.010Z,10.50
2018-10-16T10:03:34.725Z,11.93
2018-10-16T10:06:03.457Z,9.83
2018-10-16T10:08:32.141Z,12.50
2018-10-16T10:11:00.666Z,13.53
2018-10-16T10:13:29.326Z,15.43
2018-10-16T10:15:57.915Z,13.23
2018-10-16T10:18:26.645Z,14.57
2018-10-16T10:20:55.140Z,18.80
2018-10-16T10:23:23.751Z,15.93
2018-10-16T10:25:52.329Z,12.67
2018-10-16T10:28:20.861Z,14.93
2018-10-16T10:30:49.433Z,33.07
2018-10-16T10:33:17.974Z,15.33
2018-10-16T10:35:46.583Z,14.83
2018-10-16T10:38:15.197Z,17.53
2018-10-16T10:40:43.836Z,16.20
2018-10-16T10:43:12.312Z,17.63
2018-10-16T10:45:41.249Z,16.37
2018-10-16T10:48:09.760Z,11.83
2018-10-16T10:50:38.622Z,16.77
2018-10-16T10:53:07.009Z,14.17
2018-10-16T10:55:35.504Z,12.60
2018-10-16T10:58:04.140Z,15.33
2018-10-16T11:00:32.574Z,13.97
2018-10-16T11:03:01.120Z,15.23
2018-10-16T11:05:29.542Z,22.40
2018-10-16T11:07:58.029Z,18.53
2018-10-16T11:10:26.460Z,15.70
2018-10-16T11:12:54.949Z,15.70
2018-10-16T11:15:23.431Z,14.77
2018-10-16T11:17:51.929Z,11.47
2018-10-16T11:20:20.358Z,13.10
2018-10-16T11:22:48.886Z,10.93
2018-10-16T11:25:17.531Z,12.33
2018-10-16T11:27:46.127Z,10.83
2018-10-16T11:30:15.748Z,13.40
2018-10-16T11:32:44.323Z,13.13
2018-10-16T11:35:14.116Z,12.80
2018-10-16T11:37:43.202Z,12.87
2018-10-16T11:40:12.187Z,14.40
2018-10-16T11:42:41.387Z,12.40
2018-10-16T11:45:10.091Z,12.30
2018-10-16T11:47:38.936Z,10.73
2018-10-16T11:50:09.201Z,11.63
2018-10-16T11:52:37.704Z,12.23
2018-10-16T11:55:07.156Z,12.83
2018-10-16T11:57:35.891Z,14.87
2018-10-16T12:00:04.727Z,10.87
2018-10-16T12:02:33.405Z,14.00
2018-10-16T12:05:01.925Z,14.90
2018-10-16T12:07:30.347Z,12.17
2018-10-16T12:09:58.810Z,12.07
2018-10-16T12:12:27.484Z,11.67
2018-10-16T12:14:56.111Z,11.63
2018-10-16T12:17:29.967Z,9.73
2018-10-16T12:20:03.113Z,10.03
2018-10-16T12:22:31.697Z,13.47
2018-10-16T12:25:00.231Z,9.90
2018-10-16T12:27:28.672Z,12.13
2018-10-16T12:29:57.249Z,15.10
2018-10-16T12:32:25.755Z,12.73
2018-10-16T12:34:54.241Z,15.80
2018-10-16T12:37:22.704Z,13.93
2018-10-16T12:39:51.306Z,15.73
2018-10-16T12:42:19.970Z,9.10
2018-10-16T12:44:48.525Z,9.83
2018-10-16T12:47:16.930Z,19.53
2018-10-16T12:49:45.397Z,13.00
2018-10-16T12:52:13.922Z,10.20
2018-10-16T12:54:42.578Z,11.20
2018-10-16T12:57:11.202Z,12.07
2018-10-16T12:59:39.724Z,13.03
2018-10-16T13:02:08.296Z,9.63
2018-10-16T13:04:36.750Z,12.63
2018-10-16T13:07:12.142Z,10.37
2018-10-16T13:09:40.753Z,17.30
2018-10-16T13:12:09.195Z,16.83
2018-10-16T13:14:37.655Z,9.97
2018-10-16T13:17:06.114Z,9.00
2018-10-16T13:19:34.589Z,11.40
2018-10-16T13:22:03.227Z,8.70
2018-10-16T13:24:31.749Z,11.73
2018-10-16T13:27:00.184Z,9.03
2018-10-16T13:29:28.753Z,11.13
2018-10-16T13:31:57.144Z,10.17
2018-10-16T13:34:25.573Z,9.33
2018-10-16T13:36:54.168Z,7.97
2018-10-16T13:39:22.726Z,9.93
2018-10-16T13:41:51.174Z,10.20
2018-10-16T13:44:19.644Z,13.47
2018-10-16T13:46:48.337Z,11.50
2018-10-16T13:49:16.868Z,11.20
2018-10-16T13:51:45.420Z,10.20
2018-10-16T13:54:15.195Z,10.60
2018-10-16T13:56:43.660Z,17.07
2018-10-16T13:59:12.204Z,11.70
2018-10-16T14:01:40.799Z,11.63
2018-10-16T14:04:09.377Z,13.97
2018-10-16T14:06:37.813Z,11.00
2018-10-16T14:09:08.128Z,13.23
2018-10-16T14:11:36.740Z,10.40
2018-10-16T14:14:05.773Z,9.97
2018-10-16T14:16:34.272Z,12.90
2018-10-16T14:19:02.847Z,12.40
2018-10-16T14:21:31.409Z,9.73
2018-10-16T14:23:59.887Z,12.27
2018-10-16T14:26:28.478Z,10.07
2018-10-16T14:28:56.992Z,10.00
2018-10-16T14:31:25.667Z,11.10
2018-10-16T14:33:54.303Z,12.93
2018-10-16T14:36:22.920Z,8.10
2018-10-16T14:38:51.652Z,10.97
2018-10-16T14:41:20.121Z,11.13
2018-10-16T14:43:48.668Z,26.97
2018-10-16T14:46:17.284Z,14.13
2018-10-16T14:48:45.840Z,13.30
2018-10-16T14:51:14.333Z,10.00
2018-10-16T14:53:42.930Z,8.13
2018-10-16T14:56:11.558Z,14.03
2018-10-16T14:58:40.036Z,10.27
2018-10-16T15:01:08.717Z,13.90
2018-10-16T15:03:37.152Z,16.20
2018-10-16T15:06:05.761Z,9.60
2018-10-16T15:08:34.324Z,11.83
2018-10-16T15:11:02.854Z,12.10
2018-10-16T15:13:31.394Z,14.00
2018-10-16T15:15:59.999Z,14.33
2018-10-16T15:18:28.507Z,10.70
2018-10-16T15:20:57.000Z,9.60
2018-10-16T15:23:25.442Z,13.30
2018-10-16T15:25:53.952Z,9.60
2018-10-16T15:28:22.481Z,9.33
2018-10-16T15:30:50.960Z,8.53
2018-10-16T15:33:19.479Z,12.47
2018-10-16T15:35:47.992Z,12.67
2018-10-16T15:38:16.849Z,14.30
2018-10-16T15:40:45.402Z,10.80
2018-10-16T15:43:13.854Z,13.53
2018-10-16T15:45:42.363Z,12.30
2018-10-16T15:48:10.984Z,18.13
2018-10-16T15:50:39.582Z,18.23
2018-10-16T15:53:08.022Z,24.10
2018-10-16T15:55:36.497Z,11.53
2018-10-16T15:58:06.011Z,14.83
2018-10-16T16:00:34.445Z,16.73
2018-10-16T16:03:02.941Z,17.47
2018-10-16T16:05:31.340Z,15.83
2018-10-16T16:07:59.859Z,10.03
2018-10-16T16:10:28.392Z,10.80
2018-10-16T16:12:57.025Z,11.20
2018-10-16T16:15:25.450Z,16.37
2018-10-16T16:17:53.946Z,9.73
2018-10-16T16:20:22.419Z,11.60
2018-10-16T16:22:50.897Z,15.37
2018-10-16T16:25:19.418Z,10.43
2018-10-16T16:27:47.923Z,11.70
2018-10-16T16:30:16.913Z,9.73
2018-10-16T16:32:45.408Z,11.50
2018-10-16T16:35:13.943Z,15.80
2018-10-16T16:37:42.476Z,11.50
2018-10-16T16:40:12.412Z,13.60
2018-10-16T16:42:40.812Z,11.10
2018-10-16T16:45:10.309Z,15.73
2018-10-16T16:47:38.796Z,12.03
2018-10-16T16:50:08.870Z,11.17
2018-10-16T16:52:37.650Z,12.30
2018-10-16T16:55:07.937Z,15.33
2018-10-16T16:57:36.569Z,11.23
2018-10-16T17:00:05.199Z,19.83
2018-10-16T17:02:33.761Z,20.97
2018-10-16T17:05:02.319Z,12.30
2018-10-16T17:07:30.906Z,14.23
2018-10-16T17:09:59.422Z,22.13
2018-10-16T17:12:27.976Z,15.10
2018-10-16T17:14:56.621Z,11.10
2018-10-16T17:17:25.107Z,13.47
2018-10-16T17:19:53.763Z,10.80
2018-10-16T17:22:22.287Z,20.07
2018-10-16T17:24:50.976Z,12.30
2018-10-16T17:27:19.395Z,11.57
2018-10-16T17:29:48.032Z,14.40
2018-10-16T17:32:16.857Z,13.33
2018-10-16T17:34:45.359Z,15.43
2018-10-16T17:37:13.840Z,14.47
2018-10-16T17:39:42.306Z,16.97
2018-10-16T17:42:10.809Z,16.63
2018-10-16T17:44:39.535Z,14.90
2018-10-16T17:47:08.026Z,15.03
2018-10-16T17:49:36.448Z,17.10
2018-10-16T17:52:05.068Z,17.03
2018-10-16T17:54:33.485Z,13.73
2018-10-16T17:57:02.096Z,15.33
2018-10-16T17:59:30.516Z,14.53
2018-10-16T18:01:59.132Z,15.03
2018-10-16T18:04:27.692Z,16.27
2018-10-16T18:06:56.249Z,17.93
2018-10-16T18:09:24.712Z,21.50
2018-10-16T18:11:53.310Z,16.40
2018-10-16T18:14:21.729Z,21.27
2018-10-16T18:16:50.306Z,23.37
2018-10-16T18:19:18.808Z,20.33
2018-10-16T18:21:47.349Z,21.03
2018-10-16T18:24:16.795Z,14.57
2018-10-16T18:26:45.407Z,16.23
2018-10-16T18:29:13.857Z,15.67
2018-10-16T18:31:42.331Z,13.13
2018-10-16T18:34:10.892Z,13.40
2018-10-16T18:36:39.549Z,18.67
2018-10-16T18:39:08.914Z,11.73
2018-10-16T18:41:38.094Z,14.73
2018-10-16T18:44:06.787Z,15.10
2018-10-16T18:46:35.368Z,16.67
2018-10-16T18:49:03.789Z,16.23
2018-10-16T18:51:32.226Z,20.33
2018-10-16T18:54:00.820Z,19.37
2018-10-16T18:56:29.444Z,17.20
2018-10-16T18:58:58.003Z,26.33
2018-10-16T19:01:26.492Z,14.20
2018-10-16T19:03:55.113Z,19.43
2018-10-16T19:06:23.740Z,15.80
2018-10-16T19:08:52.309Z,19.00
2018-10-16T19:11:20.786Z,17.43
2018-10-16T19:13:49.444Z,21.10
2018-10-16T19:16:18.131Z,19.80
2018-10-16T19:18:46.772Z,19.17
2018-10-16T19:21:15.488Z,17.40
2018-10-16T19:23:43.817Z,22.80
2018-10-16T19:26:12.277Z,21.23
2018-10-16T19:28:40.783Z,19.43
2018-10-16T19:31:09.268Z,15.80
2018-10-16T19:33:37.708Z,19.13
2018-10-16T19:36:06.313Z,22.43
2018-10-16T19:38:34.789Z,19.90
2018-10-16T19:41:03.216Z,22.63
2018-10-16T19:43:31.819Z,19.07
2018-10-16T19:46:00.316Z,20.77
2018-10-16T19:48:28.813Z,16.80
2018-10-16T19:50:57.392Z,15.60
2018-10-16T19:53:25.901Z,16.67
2018-10-16T19:55:54.419Z,17.60
2018-10-16T19:58:22.928Z,17.13
2018-10-16T20:00:51.446Z,24.63
2018-10-16T20:03:19.948Z,19.60
2018-10-16T20:05:48.460Z,18.20
2018-10-16T20:08:17.317Z,18.57
2018-10-16T20:10:45.772Z,21.50
2018-10-16T20:13:14.288Z,19.20
2018-10-16T20:15:43.008Z,22.90
2018-10-16T20:18:11.503Z,21.10
2018-10-16T20:20:40.002Z,18.37
2018-10-16T20:23:08.593Z,17.40
2018-10-16T20:25:37.084Z,24.60
2018-10-16T20:28:05.618Z,18.83
2018-10-16T20:30:34.132Z,16.97
2018-10-16T20:33:02.637Z,20.97
2018-10-16T20:35:31.091Z,26.53
2018-10-16T20:37:59.681Z,22.80
2018-10-16T20:40:28.140Z,25.27
2018-10-16T20:42:56.659Z,19.20
2018-10-16T20:45:25.135Z,20.03
2018-10-16T20:47:53.567Z,27.07
2018-10-16T20:50:22.131Z,16.90
2018-10-16T20:52:50.611Z,24.50
2018-10-16T20:55:19.108Z,19.47
2018-10-16T20:57:47.606Z,20.23
2018-10-16T21:00:16.081Z,21.40
2018-10-16T21:02:44.545Z,19.23
2018-10-16T21:05:13.198Z,21.37
2018-10-16T21:07:41.437Z,25.17
2018-10-16T21:10:09.890Z,24.60
2018-10-16T21:12:38.323Z,21.13
2018-10-16T21:15:07.944Z,27.87
2018-10-16T21:17:36.379Z,21.10
2018-10-16T21:20:05.356Z,21.43
2018-10-16T21:22:33.818Z,28.70
2018-10-16T21:25:02.433Z,21.93
2018-10-16T21:27:30.894Z,20.83
2018-10-16T21:29:59.306Z,24.47
2018-10-16T21:32:27.748Z,20.60
2018-10-16T21:34:56.247Z,20.63
2018-10-16T21:37:24.694Z,22.17
2018-10-16T21:39:53.186Z,24.40
2018-10-16T21:42:21.646Z,21.53
2018-10-16T21:44:50.289Z,22.90
2018-10-16T21:47:18.661Z,21.77
2018-10-16T21:49:47.238Z,21.17
2018-10-16T21:52:15.675Z,21.97
2018-10-16T21:54:44.101Z,20.93
2018-10-16T21:57:12.472Z,25.80
2018-10-16T21:59:40.969Z,22.03
2018-10-16T22:02:14.628Z,21.37
2018-10-16T22:04:44.722Z,21.23
2018-10-16T22:07:13.126Z,23.43
2018-10-16T22:09:41.551Z,19.97
2018-10-16T22:12:09.916Z,21.80
2018-10-16T22:14:38.328Z,19.10
2018-10-16T22:17:06.891Z,17.60
2018-10-16T22:19:35.264Z,18.73
2018-10-16T22:22:03.680Z,25.03
2018-10-16T22:24:32.047Z,21.50
2018-10-16T22:27:00.450Z,28.83
2018-10-16T22:29:28.861Z,23.17
2018-10-16T22:31:57.453Z,20.40
2018-10-16T22:34:25.872Z,22.70
2018-10-16T22:36:54.355Z,22.33
2018-10-16T22:39:22.829Z,23.17
2018-10-16T22:41:51.212Z,21.37
2018-10-16T22:44:19.636Z,20.70
2018-10-16T22:46:48.049Z,20.97
2018-10-16T22:49:16.516Z,27.03
2018-10-16T22:51:44.962Z,21.20
2018-10-16T22:54:13.413Z,23.80
2018-10-16T22:56:41.908Z,21.10
2018-10-16T22:59:10.564Z,23.63
2018-10-16T23:01:39.086Z,24.00
2018-10-16T23:04:07.482Z,18.90
2018-10-16T23:06:35.857Z,22.50
2018-10-16T23:09:05.280Z,19.10
2018-10-16T23:11:33.784Z,17.97
2018-10-16T23:14:02.142Z,23.17
2018-10-16T23:16:30.572Z,22.20
2018-10-16T23:18:58.996Z,20.57
2018-10-16T23:21:27.380Z,18.00
2018-10-16T23:23:55.787Z,23.47
2018-10-16T23:26:24.260Z,23.03
2018-10-16T23:28:52.703Z,21.67
2018-10-16T23:31:21.286Z,19.50
2018-10-16T23:33:49.736Z,20.87
2018-10-16T23:36:18.164Z,20.70
2018-10-16T23:38:46.717Z,21.47
2018-10-16T23:41:15.277Z,20.30
2018-10-16T23:43:43.802Z,20.60
2018-10-16T23:46:12.342Z,24.47
2018-10-16T23:48:40.870Z,23.00
2018-10-16T23:51:09.333Z,23.23
2018-10-16T23:53:37.821Z,20.20
2018-10-16T23:56:06.431Z,21.17
2018-10-16T23:58:35.120Z,24.03
